Flugplatz Stuttgart Airport

Bericht für EDDS

vom 18.07. um 13:50 UTC

Wind 4 kt aus VRB°

Sichtweite 9700 m

gute Sicht, keine Wolken < 5000 ft, keine CB, keine Wettererscheinungen (CAVOK)

Temperatur 27°C

Taupunkt 14°C

Luftfeuchtigkeit 45%

Luftdruck 1021 hPa

keine wesentliche Wetteränderung innerhalb den nächsten 2 Stunden zu erwarten

EDDS 181350Z AUTO VRB04KT CAVOK 27/14 Q1021 NOSIG

Prognose für EDDS

vom 18.07. um 11:00 UTC

Zwischen 12:00 UTC und 17:00 UTC

Wind 5 kt aus 60°

Sichtweite 9700 m

gering bewölkt in 4000 ft


Zwischen 17:00 und 20:00 UTC übergehend zu

Wind 3 kt aus VRB°

Sichtweite 9700 m

gering bewölkt in 4000 ft

TAF EDDS 181100Z 1812/1912 06005KT 9999 FEW040 BECMG 1817/1820 VRB03KT
Impressum